sensor_id;sensor_type;location;lat;lon;timestamp;P1;durP1;ratioP1;P2;durP2;ratioP2
2458;SDS011;1241;50.920;6.936;2022-12-18T00:02:05;34.33;;;20.40;;
2458;SDS011;1241;50.920;6.936;2022-12-18T00:04:31;30.20;;;16.73;;
2458;SDS011;1241;50.920;6.936;2022-12-18T00:06:56;36.67;;;23.33;;
2458;SDS011;1241;50.920;6.936;2022-12-18T00:09:22;42.70;;;23.77;;
2458;SDS011;1241;50.920;6.936;2022-12-18T00:11:48;40.63;;;20.50;;
2458;SDS011;1241;50.920;6.936;2022-12-18T00:14:14;41.23;;;21.57;;
2458;SDS011;1241;50.920;6.936;2022-12-18T00:16:42;26.65;;;16.13;;
2458;SDS011;1241;50.920;6.936;2022-12-18T00:19:09;31.88;;;20.15;;
2458;SDS011;1241;50.920;6.936;2022-12-18T00:21:35;29.65;;;17.00;;
2458;SDS011;1241;50.920;6.936;2022-12-18T00:24:10;24.52;;;18.65;;
2458;SDS011;1241;50.920;6.936;2022-12-18T00:26:37;34.47;;;20.10;;
2458;SDS011;1241;50.920;6.936;2022-12-18T00:29:05;35.42;;;20.15;;
2458;SDS011;1241;50.920;6.936;2022-12-18T00:31:42;33.63;;;19.52;;
2458;SDS011;1241;50.920;6.936;2022-12-18T00:34:09;30.90;;;18.80;;
2458;SDS011;1241;50.920;6.936;2022-12-18T00:36:38;26.88;;;16.08;;
2458;SDS011;1241;50.920;6.936;2022-12-18T00:39:05;39.10;;;25.02;;
2458;SDS011;1241;50.920;6.936;2022-12-18T00:41:31;24.13;;;15.00;;
2458;SDS011;1241;50.920;6.936;2022-12-18T00:44:16;27.30;;;17.40;;
2458;SDS011;1241;50.920;6.936;2022-12-18T00:46:44;31.08;;;17.52;;
2458;SDS011;1241;50.920;6.936;2022-12-18T00:49:12;40.95;;;20.45;;
2458;SDS011;1241;50.920;6.936;2022-12-18T00:51:38;25.17;;;15.88;;
2458;SDS011;1241;50.920;6.936;2022-12-18T00:54:04;28.87;;;18.30;;
2458;SDS011;1241;50.920;6.936;2022-12-18T00:56:30;34.50;;;20.20;;
2458;SDS011;1241;50.920;6.936;2022-12-18T00:58:56;31.60;;;20.33;;
2458;SDS011;1241;50.920;6.936;2022-12-18T01:01:21;27.73;;;15.77;;
2458;SDS011;1241;50.920;6.936;2022-12-18T01:03:47;31.23;;;15.70;;
2458;SDS011;1241;50.920;6.936;2022-12-18T01:06:15;29.77;;;15.70;;
2458;SDS011;1241;50.920;6.936;2022-12-18T01:08:41;30.95;;;19.70;;
2458;SDS011;1241;50.920;6.936;2022-12-18T01:11:12;23.50;;;16.25;;
2458;SDS011;1241;50.920;6.936;2022-12-18T01:13:40;29.85;;;18.52;;
2458;SDS011;1241;50.920;6.936;2022-12-18T01:16:06;23.13;;;15.27;;
2458;SDS011;1241;50.920;6.936;2022-12-18T01:18:34;27.42;;;15.80;;
2458;SDS011;1241;50.920;6.936;2022-12-18T01:21:00;28.55;;;18.75;;
2458;SDS011;1241;50.920;6.936;2022-12-18T01:23:26;30.83;;;19.57;;
2458;SDS011;1241;50.920;6.936;2022-12-18T01:25:51;28.60;;;18.00;;
2458;SDS011;1241;50.920;6.936;2022-12-18T01:28:17;33.33;;;19.27;;
2458;SDS011;1241;50.920;6.936;2022-12-18T01:30:43;29.90;;;19.30;;
2458;SDS011;1241;50.920;6.936;2022-12-18T01:33:09;27.23;;;15.10;;
2458;SDS011;1241;50.920;6.936;2022-12-18T01:35:39;24.87;;;15.80;;
2458;SDS011;1241;50.920;6.936;2022-12-18T01:38:06;26.92;;;15.38;;
2458;SDS011;1241;50.920;6.936;2022-12-18T01:40:32;29.50;;;16.10;;
2458;SDS011;1241;50.920;6.936;2022-12-18T01:42:58;26.23;;;18.37;;
2458;SDS011;1241;50.920;6.936;2022-12-18T01:45:26;27.17;;;14.60;;
2458;SDS011;1241;50.920;6.936;2022-12-18T01:47:57;31.55;;;17.35;;
2458;SDS011;1241;50.920;6.936;2022-12-18T01:50:30;21.73;;;14.18;;
2458;SDS011;1241;50.920;6.936;2022-12-18T01:53:00;26.92;;;15.23;;
2458;SDS011;1241;50.920;6.936;2022-12-18T01:55:43;34.80;;;17.40;;
2458;SDS011;1241;50.920;6.936;2022-12-18T01:58:14;24.52;;;16.27;;
2458;SDS011;1241;50.920;6.936;2022-12-18T02:00:41;31.15;;;18.00;;
2458;SDS011;1241;50.920;6.936;2022-12-18T02:03:07;27.33;;;16.73;;
2458;SDS011;1241;50.920;6.936;2022-12-18T02:08:05;24.98;;;14.40;;
2458;SDS011;1241;50.920;6.936;2022-12-18T02:10:52;30.50;;;18.67;;
2458;SDS011;1241;50.920;6.936;2022-12-18T02:18:28;37.67;;;22.95;;
2458;SDS011;1241;50.920;6.936;2022-12-18T02:24:01;34.03;;;17.95;;
2458;SDS011;1241;50.920;6.936;2022-12-18T02:26:34;32.10;;;19.42;;
2458;SDS011;1241;50.920;6.936;2022-12-18T02:29:05;27.77;;;17.08;;
2458;SDS011;1241;50.920;6.936;2022-12-18T02:31:39;34.80;;;19.95;;
2458;SDS011;1241;50.920;6.936;2022-12-18T02:34:10;37.45;;;20.63;;
2458;SDS011;1241;50.920;6.936;2022-12-18T02:36:38;30.85;;;17.52;;
2458;SDS011;1241;50.920;6.936;2022-12-18T02:39:07;26.27;;;19.52;;
2458;SDS011;1241;50.920;6.936;2022-12-18T02:41:38;29.52;;;18.27;;
2458;SDS011;1241;50.920;6.936;2022-12-18T02:44:09;29.48;;;17.92;;
2458;SDS011;1241;50.920;6.936;2022-12-18T02:46:37;29.52;;;18.60;;
2458;SDS011;1241;50.920;6.936;2022-12-18T02:52:05;38.67;;;21.52;;
2458;SDS011;1241;50.920;6.936;2022-12-18T02:57:14;25.67;;;17.23;;
2458;SDS011;1241;50.920;6.936;2022-12-18T03:00:10;30.55;;;19.23;;
2458;SDS011;1241;50.920;6.936;2022-12-18T03:02:46;32.15;;;18.55;;
2458;SDS011;1241;50.920;6.936;2022-12-18T03:05:22;33.22;;;19.60;;
2458;SDS011;1241;50.920;6.936;2022-12-18T03:07:57;40.15;;;21.85;;
2458;SDS011;1241;50.920;6.936;2022-12-18T03:10:35;28.63;;;17.35;;
2458;SDS011;1241;50.920;6.936;2022-12-18T03:13:12;28.35;;;16.42;;
2458;SDS011;1241;50.920;6.936;2022-12-18T03:15:45;27.75;;;17.75;;
2458;SDS011;1241;50.920;6.936;2022-12-18T03:18:17;25.42;;;18.30;;
2458;SDS011;1241;50.920;6.936;2022-12-18T03:20:48;24.27;;;18.25;;
2458;SDS011;1241;50.920;6.936;2022-12-18T03:23:21;29.67;;;16.23;;
2458;SDS011;1241;50.920;6.936;2022-12-18T03:25:51;27.58;;;16.65;;
2458;SDS011;1241;50.920;6.936;2022-12-18T03:28:23;29.70;;;16.98;;
2458;SDS011;1241;50.920;6.936;2022-12-18T03:30:56;21.27;;;15.82;;
2458;SDS011;1241;50.920;6.936;2022-12-18T03:33:28;22.33;;;16.60;;
2458;SDS011;1241;50.920;6.936;2022-12-18T03:35:59;24.58;;;16.15;;
2458;SDS011;1241;50.920;6.936;2022-12-18T03:38:26;26.95;;;16.40;;
2458;SDS011;1241;50.920;6.936;2022-12-18T03:41:02;25.50;;;17.23;;
2458;SDS011;1241;50.920;6.936;2022-12-18T03:46:47;35.95;;;20.90;;
2458;SDS011;1241;50.920;6.936;2022-12-18T03:52:17;25.15;;;15.15;;
2458;SDS011;1241;50.920;6.936;2022-12-18T03:54:52;20.83;;;13.75;;
2458;SDS011;1241;50.920;6.936;2022-12-18T03:57:21;31.10;;;16.95;;
2458;SDS011;1241;50.920;6.936;2022-12-18T03:59:54;31.85;;;18.65;;
2458;SDS011;1241;50.920;6.936;2022-12-18T04:02:27;28.55;;;14.98;;
2458;SDS011;1241;50.920;6.936;2022-12-18T04:04:59;30.02;;;16.85;;
2458;SDS011;1241;50.920;6.936;2022-12-18T04:07:28;29.13;;;17.83;;
2458;SDS011;1241;50.920;6.936;2022-12-18T04:09:55;31.92;;;18.95;;
2458;SDS011;1241;50.920;6.936;2022-12-18T04:12:28;28.92;;;16.48;;
2458;SDS011;1241;50.920;6.936;2022-12-18T04:14:55;23.95;;;14.77;;
2458;SDS011;1241;50.920;6.936;2022-12-18T04:17:21;37.37;;;22.87;;
2458;SDS011;1241;50.920;6.936;2022-12-18T04:19:47;27.05;;;17.15;;
2458;SDS011;1241;50.920;6.936;2022-12-18T04:22:13;24.90;;;16.70;;
2458;SDS011;1241;50.920;6.936;2022-12-18T04:24:43;24.17;;;16.67;;
2458;SDS011;1241;50.920;6.936;2022-12-18T04:27:16;27.50;;;17.10;;
2458;SDS011;1241;50.920;6.936;2022-12-18T04:29:46;26.55;;;16.95;;
2458;SDS011;1241;50.920;6.936;2022-12-18T04:32:13;25.73;;;17.48;;
2458;SDS011;1241;50.920;6.936;2022-12-18T04:34:41;23.67;;;15.80;;
2458;SDS011;1241;50.920;6.936;2022-12-18T04:37:07;34.73;;;18.77;;
2458;SDS011;1241;50.920;6.936;2022-12-18T04:39:33;31.50;;;18.53;;
2458;SDS011;1241;50.920;6.936;2022-12-18T04:42:04;32.50;;;18.80;;
2458;SDS011;1241;50.920;6.936;2022-12-18T04:44:30;31.00;;;19.33;;
2458;SDS011;1241;50.920;6.936;2022-12-18T04:46:56;32.83;;;18.57;;
2458;SDS011;1241;50.920;6.936;2022-12-18T04:49:22;28.50;;;16.63;;
2458;SDS011;1241;50.920;6.936;2022-12-18T04:51:48;25.63;;;16.50;;
2458;SDS011;1241;50.920;6.936;2022-12-18T04:54:14;32.20;;;18.58;;
2458;SDS011;1241;50.920;6.936;2022-12-18T04:56:45;31.05;;;18.73;;
2458;SDS011;1241;50.920;6.936;2022-12-18T04:59:12;31.10;;;18.42;;
2458;SDS011;1241;50.920;6.936;2022-12-18T05:01:38;36.33;;;20.40;;
2458;SDS011;1241;50.920;6.936;2022-12-18T05:04:04;34.80;;;18.50;;
2458;SDS011;1241;50.920;6.936;2022-12-18T05:06:29;32.10;;;22.30;;
2458;SDS011;1241;50.920;6.936;2022-12-18T05:08:55;29.87;;;17.97;;
2458;SDS011;1241;50.920;6.936;2022-12-18T05:11:21;26.50;;;16.10;;
2458;SDS011;1241;50.920;6.936;2022-12-18T05:13:47;32.08;;;19.77;;
2458;SDS011;1241;50.920;6.936;2022-12-18T05:16:13;35.47;;;22.10;;
2458;SDS011;1241;50.920;6.936;2022-12-18T05:18:39;32.25;;;19.20;;
2458;SDS011;1241;50.920;6.936;2022-12-18T05:21:05;37.97;;;20.08;;
2458;SDS011;1241;50.920;6.936;2022-12-18T05:23:34;37.28;;;19.20;;
2458;SDS011;1241;50.920;6.936;2022-12-18T05:26:01;26.57;;;17.57;;
2458;SDS011;1241;50.920;6.936;2022-12-18T05:28:29;25.25;;;16.67;;
2458;SDS011;1241;50.920;6.936;2022-12-18T05:30:57;28.88;;;18.58;;
2458;SDS011;1241;50.920;6.936;2022-12-18T05:33:26;32.28;;;18.05;;
2458;SDS011;1241;50.920;6.936;2022-12-18T05:35:54;32.65;;;18.73;;
2458;SDS011;1241;50.920;6.936;2022-12-18T05:38:22;30.52;;;19.75;;
2458;SDS011;1241;50.920;6.936;2022-12-18T05:40:49;32.05;;;17.10;;
2458;SDS011;1241;50.920;6.936;2022-12-18T05:43:16;25.40;;;17.63;;
2458;SDS011;1241;50.920;6.936;2022-12-18T05:45:42;33.40;;;20.00;;
2458;SDS011;1241;50.920;6.936;2022-12-18T05:48:08;27.40;;;16.70;;
2458;SDS011;1241;50.920;6.936;2022-12-18T05:50:34;24.90;;;17.52;;
2458;SDS011;1241;50.920;6.936;2022-12-18T05:53:01;24.50;;;17.40;;
2458;SDS011;1241;50.920;6.936;2022-12-18T05:55:28;30.25;;;19.02;;
2458;SDS011;1241;50.920;6.936;2022-12-18T05:57:53;33.50;;;17.97;;
2458;SDS011;1241;50.920;6.936;2022-12-18T06:00:19;29.90;;;18.50;;
2458;SDS011;1241;50.920;6.936;2022-12-18T06:02:48;26.23;;;17.37;;
2458;SDS011;1241;50.920;6.936;2022-12-18T06:05:14;28.98;;;17.35;;
2458;SDS011;1241;50.920;6.936;2022-12-18T06:07:39;29.87;;;17.63;;
2458;SDS011;1241;50.920;6.936;2022-12-18T06:10:05;28.53;;;18.67;;
2458;SDS011;1241;50.920;6.936;2022-12-18T06:12:31;22.73;;;16.15;;
2458;SDS011;1241;50.920;6.936;2022-12-18T06:14:58;31.63;;;18.10;;
2458;SDS011;1241;50.920;6.936;2022-12-18T06:17:28;32.80;;;17.35;;
2458;SDS011;1241;50.920;6.936;2022-12-18T06:19:54;30.05;;;18.40;;
2458;SDS011;1241;50.920;6.936;2022-12-18T06:22:20;33.27;;;19.03;;
2458;SDS011;1241;50.920;6.936;2022-12-18T06:24:46;32.65;;;19.10;;
2458;SDS011;1241;50.920;6.936;2022-12-18T06:27:12;31.73;;;19.07;;
2458;SDS011;1241;50.920;6.936;2022-12-18T06:29:37;32.10;;;19.77;;
2458;SDS011;1241;50.920;6.936;2022-12-18T06:32:03;28.93;;;18.90;;
2458;SDS011;1241;50.920;6.936;2022-12-18T06:34:29;28.73;;;17.37;;
2458;SDS011;1241;50.920;6.936;2022-12-18T06:36:55;34.03;;;20.17;;
2458;SDS011;1241;50.920;6.936;2022-12-18T06:39:20;32.87;;;20.50;;
2458;SDS011;1241;50.920;6.936;2022-12-18T06:41:46;36.90;;;19.70;;
2458;SDS011;1241;50.920;6.936;2022-12-18T06:44:12;34.47;;;22.07;;
2458;SDS011;1241;50.920;6.936;2022-12-18T06:46:37;27.90;;;18.40;;
2458;SDS011;1241;50.920;6.936;2022-12-18T06:49:03;29.77;;;18.90;;
2458;SDS011;1241;50.920;6.936;2022-12-18T06:51:29;26.93;;;17.90;;
2458;SDS011;1241;50.920;6.936;2022-12-18T06:53:55;28.17;;;17.80;;
2458;SDS011;1241;50.920;6.936;2022-12-18T06:56:21;32.60;;;17.20;;
2458;SDS011;1241;50.920;6.936;2022-12-18T06:58:47;26.98;;;16.50;;
2458;SDS011;1241;50.920;6.936;2022-12-18T07:01:16;31.77;;;17.83;;
2458;SDS011;1241;50.920;6.936;2022-12-18T07:03:42;35.40;;;19.87;;
2458;SDS011;1241;50.920;6.936;2022-12-18T07:06:15;32.75;;;19.27;;
2458;SDS011;1241;50.920;6.936;2022-12-18T07:08:43;28.92;;;18.17;;
2458;SDS011;1241;50.920;6.936;2022-12-18T07:11:09;31.30;;;18.17;;
2458;SDS011;1241;50.920;6.936;2022-12-18T07:13:35;32.78;;;17.38;;
2458;SDS011;1241;50.920;6.936;2022-12-18T07:16:05;32.97;;;18.20;;
2458;SDS011;1241;50.920;6.936;2022-12-18T07:18:35;30.50;;;18.65;;
2458;SDS011;1241;50.920;6.936;2022-12-18T07:21:02;27.90;;;16.48;;
2458;SDS011;1241;50.920;6.936;2022-12-18T07:23:33;34.53;;;20.15;;
2458;SDS011;1241;50.920;6.936;2022-12-18T07:26:06;29.40;;;17.80;;
2458;SDS011;1241;50.920;6.936;2022-12-18T07:28:37;30.00;;;19.65;;
2458;SDS011;1241;50.920;6.936;2022-12-18T07:31:05;36.75;;;19.98;;
2458;SDS011;1241;50.920;6.936;2022-12-18T07:33:33;30.15;;;18.40;;
2458;SDS011;1241;50.920;6.936;2022-12-18T07:36:02;30.73;;;18.23;;
2458;SDS011;1241;50.920;6.936;2022-12-18T07:38:30;34.10;;;18.63;;
2458;SDS011;1241;50.920;6.936;2022-12-18T07:41:02;31.58;;;19.02;;
2458;SDS011;1241;50.920;6.936;2022-12-18T07:43:38;31.02;;;19.08;;
2458;SDS011;1241;50.920;6.936;2022-12-18T07:46:05;32.33;;;19.27;;
2458;SDS011;1241;50.920;6.936;2022-12-18T07:48:31;32.60;;;19.30;;
2458;SDS011;1241;50.920;6.936;2022-12-18T07:50:58;27.90;;;17.30;;
2458;SDS011;1241;50.920;6.936;2022-12-18T07:53:24;36.17;;;19.95;;
2458;SDS011;1241;50.920;6.936;2022-12-18T07:55:54;31.93;;;18.07;;
2458;SDS011;1241;50.920;6.936;2022-12-18T07:58:21;28.27;;;18.42;;
2458;SDS011;1241;50.920;6.936;2022-12-18T08:00:46;30.57;;;19.50;;
2458;SDS011;1241;50.920;6.936;2022-12-18T08:03:12;28.87;;;18.30;;
2458;SDS011;1241;50.920;6.936;2022-12-18T08:05:38;25.90;;;17.30;;
2458;SDS011;1241;50.920;6.936;2022-12-18T08:08:03;26.40;;;16.80;;
2458;SDS011;1241;50.920;6.936;2022-12-18T08:10:29;32.40;;;20.20;;
2458;SDS011;1241;50.920;6.936;2022-12-18T08:12:55;27.43;;;18.20;;
2458;SDS011;1241;50.920;6.936;2022-12-18T08:15:20;32.33;;;19.80;;
2458;SDS011;1241;50.920;6.936;2022-12-18T08:17:46;29.63;;;19.27;;
2458;SDS011;1241;50.920;6.936;2022-12-18T08:20:12;30.37;;;16.97;;
2458;SDS011;1241;50.920;6.936;2022-12-18T08:22:40;31.08;;;20.02;;
2458;SDS011;1241;50.920;6.936;2022-12-18T08:25:06;30.67;;;19.75;;
2458;SDS011;1241;50.920;6.936;2022-12-18T08:27:33;34.15;;;18.05;;
2458;SDS011;1241;50.920;6.936;2022-12-18T08:29:58;31.03;;;18.07;;
2458;SDS011;1241;50.920;6.936;2022-12-18T08:32:25;32.47;;;17.90;;
2458;SDS011;1241;50.920;6.936;2022-12-18T08:34:51;29.25;;;18.13;;
2458;SDS011;1241;50.920;6.936;2022-12-18T08:37:17;30.70;;;17.27;;
2458;SDS011;1241;50.920;6.936;2022-12-18T08:39:43;24.00;;;15.57;;
2458;SDS011;1241;50.920;6.936;2022-12-18T08:42:08;24.50;;;16.60;;
2458;SDS011;1241;50.920;6.936;2022-12-18T08:44:53;33.15;;;18.90;;
2458;SDS011;1241;50.920;6.936;2022-12-18T08:47:18;25.33;;;18.03;;
2458;SDS011;1241;50.920;6.936;2022-12-18T08:49:44;28.23;;;18.60;;
2458;SDS011;1241;50.920;6.936;2022-12-18T08:52:10;29.33;;;18.57;;
2458;SDS011;1241;50.920;6.936;2022-12-18T08:54:36;33.73;;;18.63;;
2458;SDS011;1241;50.920;6.936;2022-12-18T08:57:01;32.27;;;17.60;;
2458;SDS011;1241;50.920;6.936;2022-12-18T08:59:27;32.83;;;19.43;;
2458;SDS011;1241;50.920;6.936;2022-12-18T09:01:53;27.63;;;17.53;;
2458;SDS011;1241;50.920;6.936;2022-12-18T09:04:20;30.88;;;18.90;;
2458;SDS011;1241;50.920;6.936;2022-12-18T09:06:46;30.17;;;18.57;;
2458;SDS011;1241;50.920;6.936;2022-12-18T09:09:11;30.80;;;20.30;;
2458;SDS011;1241;50.920;6.936;2022-12-18T09:11:37;26.33;;;17.60;;
2458;SDS011;1241;50.920;6.936;2022-12-18T09:14:03;27.67;;;17.23;;
2458;SDS011;1241;50.920;6.936;2022-12-18T09:16:29;24.43;;;17.40;;
2458;SDS011;1241;50.920;6.936;2022-12-18T09:18:56;25.83;;;18.25;;
2458;SDS011;1241;50.920;6.936;2022-12-18T09:21:26;27.67;;;19.85;;
2458;SDS011;1241;50.920;6.936;2022-12-18T09:23:54;25.55;;;17.98;;
2458;SDS011;1241;50.920;6.936;2022-12-18T09:26:21;29.60;;;18.17;;
2458;SDS011;1241;50.920;6.936;2022-12-18T09:28:48;25.50;;;16.70;;
2458;SDS011;1241;50.920;6.936;2022-12-18T09:31:14;28.55;;;18.20;;
2458;SDS011;1241;50.920;6.936;2022-12-18T09:33:41;26.60;;;16.50;;
2458;SDS011;1241;50.920;6.936;2022-12-18T09:36:07;28.93;;;17.43;;
2458;SDS011;1241;50.920;6.936;2022-12-18T09:38:35;30.20;;;18.35;;
2458;SDS011;1241;50.920;6.936;2022-12-18T09:41:05;24.53;;;16.70;;
2458;SDS011;1241;50.920;6.936;2022-12-18T09:43:55;23.15;;;17.08;;
2458;SDS011;1241;50.920;6.936;2022-12-18T09:46:29;32.72;;;18.73;;
2458;SDS011;1241;50.920;6.936;2022-12-18T09:48:59;26.35;;;18.30;;
2458;SDS011;1241;50.920;6.936;2022-12-18T09:51:39;28.88;;;17.15;;
2458;SDS011;1241;50.920;6.936;2022-12-18T09:54:14;28.90;;;18.98;;
2458;SDS011;1241;50.920;6.936;2022-12-18T09:56:51;24.63;;;16.70;;
2458;SDS011;1241;50.920;6.936;2022-12-18T09:59:33;25.10;;;15.87;;
2458;SDS011;1241;50.920;6.936;2022-12-18T10:02:23;30.02;;;19.58;;
2458;SDS011;1241;50.920;6.936;2022-12-18T10:04:55;25.65;;;16.63;;
2458;SDS011;1241;50.920;6.936;2022-12-18T10:07:34;23.23;;;18.50;;
2458;SDS011;1241;50.920;6.936;2022-12-18T10:10:14;33.75;;;19.63;;
2458;SDS011;1241;50.920;6.936;2022-12-18T10:15:58;21.42;;;15.63;;
2458;SDS011;1241;50.920;6.936;2022-12-18T10:21:03;27.90;;;17.13;;
2458;SDS011;1241;50.920;6.936;2022-12-18T10:26:17;22.50;;;16.13;;
2458;SDS011;1241;50.920;6.936;2022-12-18T10:28:43;32.42;;;19.10;;
2458;SDS011;1241;50.920;6.936;2022-12-18T10:31:20;22.85;;;16.45;;
2458;SDS011;1241;50.920;6.936;2022-12-18T10:33:47;23.42;;;16.42;;
2458;SDS011;1241;50.920;6.936;2022-12-18T10:36:13;21.70;;;15.77;;
2458;SDS011;1241;50.920;6.936;2022-12-18T10:38:39;33.00;;;18.52;;
2458;SDS011;1241;50.920;6.936;2022-12-18T10:41:08;25.58;;;17.20;;
2458;SDS011;1241;50.920;6.936;2022-12-18T10:46:36;25.02;;;16.70;;
2458;SDS011;1241;50.920;6.936;2022-12-18T10:49:02;25.85;;;17.00;;
2458;SDS011;1241;50.920;6.936;2022-12-18T10:51:33;25.30;;;17.83;;
2458;SDS011;1241;50.920;6.936;2022-12-18T10:54:04;27.27;;;19.65;;
2458;SDS011;1241;50.920;6.936;2022-12-18T10:56:38;26.98;;;17.70;;
2458;SDS011;1241;50.920;6.936;2022-12-18T10:59:05;27.17;;;17.17;;
2458;SDS011;1241;50.920;6.936;2022-12-18T11:04:26;22.67;;;15.63;;
2458;SDS011;1241;50.920;6.936;2022-12-18T11:07:02;23.77;;;16.45;;
2458;SDS011;1241;50.920;6.936;2022-12-18T11:09:33;27.50;;;16.10;;
2458;SDS011;1241;50.920;6.936;2022-12-18T11:12:14;29.75;;;16.73;;
2458;SDS011;1241;50.920;6.936;2022-12-18T11:14:46;28.58;;;15.65;;
2458;SDS011;1241;50.920;6.936;2022-12-18T11:17:20;26.65;;;16.05;;
2458;SDS011;1241;50.920;6.936;2022-12-18T11:19:53;23.20;;;15.88;;
2458;SDS011;1241;50.920;6.936;2022-12-18T11:22:41;26.08;;;16.50;;
2458;SDS011;1241;50.920;6.936;2022-12-18T11:25:07;27.30;;;17.23;;
2458;SDS011;1241;50.920;6.936;2022-12-18T11:28:03;26.60;;;17.67;;
2458;SDS011;1241;50.920;6.936;2022-12-18T11:30:34;24.83;;;16.05;;
2458;SDS011;1241;50.920;6.936;2022-12-18T11:33:20;25.13;;;17.15;;
2458;SDS011;1241;50.920;6.936;2022-12-18T11:38:23;27.02;;;17.77;;
2458;SDS011;1241;50.920;6.936;2022-12-18T11:46:30;25.23;;;15.73;;
2458;SDS011;1241;50.920;6.936;2022-12-18T11:49:04;26.67;;;16.60;;
2458;SDS011;1241;50.920;6.936;2022-12-18T11:51:48;26.00;;;15.35;;
2458;SDS011;1241;50.920;6.936;2022-12-18T11:54:20;29.90;;;17.98;;
2458;SDS011;1241;50.920;6.936;2022-12-18T11:56:48;25.47;;;18.17;;
2458;SDS011;1241;50.920;6.936;2022-12-18T12:10:01;26.63;;;17.35;;
2458;SDS011;1241;50.920;6.936;2022-12-18T12:13:15;29.48;;;18.25;;
2458;SDS011;1241;50.920;6.936;2022-12-18T12:20:53;20.15;;;16.88;;
2458;SDS011;1241;50.920;6.936;2022-12-18T12:23:48;22.60;;;16.52;;
2458;SDS011;1241;50.920;6.936;2022-12-18T12:26:40;23.08;;;17.15;;
2458;SDS011;1241;50.920;6.936;2022-12-18T12:40:33;24.90;;;17.60;;
2458;SDS011;1241;50.920;6.936;2022-12-18T12:43:10;28.40;;;21.00;;
2458;SDS011;1241;50.920;6.936;2022-12-18T12:45:52;25.05;;;17.27;;
2458;SDS011;1241;50.920;6.936;2022-12-18T12:51:18;29.52;;;20.90;;
2458;SDS011;1241;50.920;6.936;2022-12-18T12:53:54;25.83;;;18.33;;
2458;SDS011;1241;50.920;6.936;2022-12-18T12:56:22;36.65;;;23.65;;
2458;SDS011;1241;50.920;6.936;2022-12-18T13:01:48;31.15;;;18.60;;
2458;SDS011;1241;50.920;6.936;2022-12-18T13:04:32;30.17;;;21.10;;
2458;SDS011;1241;50.920;6.936;2022-12-18T13:07:13;29.35;;;20.25;;
2458;SDS011;1241;50.920;6.936;2022-12-18T13:12:51;32.33;;;21.27;;
2458;SDS011;1241;50.920;6.936;2022-12-18T13:15:25;32.17;;;20.55;;
2458;SDS011;1241;50.920;6.936;2022-12-18T13:20:39;31.20;;;19.50;;
2458;SDS011;1241;50.920;6.936;2022-12-18T13:25:48;30.48;;;19.27;;
2458;SDS011;1241;50.920;6.936;2022-12-18T13:28:15;27.92;;;19.40;;
2458;SDS011;1241;50.920;6.936;2022-12-18T13:36:41;33.70;;;20.40;;
2458;SDS011;1241;50.920;6.936;2022-12-18T13:41:39;30.02;;;21.35;;
2458;SDS011;1241;50.920;6.936;2022-12-18T13:44:12;33.17;;;20.33;;
2458;SDS011;1241;50.920;6.936;2022-12-18T13:46:49;29.33;;;19.17;;
2458;SDS011;1241;50.920;6.936;2022-12-18T13:49:20;35.42;;;21.80;;
2458;SDS011;1241;50.920;6.936;2022-12-18T13:51:53;30.60;;;20.90;;
2458;SDS011;1241;50.920;6.936;2022-12-18T13:56:55;32.83;;;17.75;;
2458;SDS011;1241;50.920;6.936;2022-12-18T14:02:00;36.73;;;20.87;;
2458;SDS011;1241;50.920;6.936;2022-12-18T14:04:34;37.10;;;21.35;;
2458;SDS011;1241;50.920;6.936;2022-12-18T14:07:07;31.13;;;21.00;;
2458;SDS011;1241;50.920;6.936;2022-12-18T14:09:45;27.90;;;19.38;;
2458;SDS011;1241;50.920;6.936;2022-12-18T14:12:14;32.75;;;24.05;;
2458;SDS011;1241;50.920;6.936;2022-12-18T14:15:03;34.50;;;19.40;;
2458;SDS011;1241;50.920;6.936;2022-12-18T14:17:31;31.08;;;19.92;;
2458;SDS011;1241;50.920;6.936;2022-12-18T14:19:57;29.45;;;20.08;;
2458;SDS011;1241;50.920;6.936;2022-12-18T14:22:24;33.28;;;17.95;;
2458;SDS011;1241;50.920;6.936;2022-12-18T14:30:35;34.17;;;21.88;;
2458;SDS011;1241;50.920;6.936;2022-12-18T14:33:09;32.28;;;20.35;;
2458;SDS011;1241;50.920;6.936;2022-12-18T14:36:19;25.75;;;18.50;;
2458;SDS011;1241;50.920;6.936;2022-12-18T14:38:42;30.90;;;20.17;;
2458;SDS011;1241;50.920;6.936;2022-12-18T14:41:13;29.90;;;20.85;;
2458;SDS011;1241;50.920;6.936;2022-12-18T14:43:41;31.85;;;20.75;;
2458;SDS011;1241;50.920;6.936;2022-12-18T14:51:47;32.83;;;20.25;;
2458;SDS011;1241;50.920;6.936;2022-12-18T14:54:16;34.47;;;22.40;;
2458;SDS011;1241;50.920;6.936;2022-12-18T14:57:05;28.73;;;20.98;;
2458;SDS011;1241;50.920;6.936;2022-12-18T14:59:38;34.45;;;21.15;;
2458;SDS011;1241;50.920;6.936;2022-12-18T15:02:08;38.60;;;21.40;;
2458;SDS011;1241;50.920;6.936;2022-12-18T15:04:46;30.73;;;19.58;;
2458;SDS011;1241;50.920;6.936;2022-12-18T15:09:44;37.63;;;21.85;;
2458;SDS011;1241;50.920;6.936;2022-12-18T15:12:27;31.40;;;21.35;;
2458;SDS011;1241;50.920;6.936;2022-12-18T15:15:03;34.28;;;22.73;;
2458;SDS011;1241;50.920;6.936;2022-12-18T15:17:29;36.47;;;21.67;;
2458;SDS011;1241;50.920;6.936;2022-12-18T15:20:00;36.70;;;23.40;;
2458;SDS011;1241;50.920;6.936;2022-12-18T15:22:28;35.53;;;22.80;;
2458;SDS011;1241;50.920;6.936;2022-12-18T15:24:58;29.90;;;20.80;;
2458;SDS011;1241;50.920;6.936;2022-12-18T15:27:26;33.95;;;22.40;;
2458;SDS011;1241;50.920;6.936;2022-12-18T15:32:37;38.55;;;22.92;;
2458;SDS011;1241;50.920;6.936;2022-12-18T15:35:21;28.75;;;20.33;;
2458;SDS011;1241;50.920;6.936;2022-12-18T15:37:48;34.75;;;23.35;;
2458;SDS011;1241;50.920;6.936;2022-12-18T15:40:16;34.95;;;21.60;;
2458;SDS011;1241;50.920;6.936;2022-12-18T15:42:46;35.90;;;23.48;;
2458;SDS011;1241;50.920;6.936;2022-12-18T15:45:32;35.38;;;21.55;;
2458;SDS011;1241;50.920;6.936;2022-12-18T15:48:01;31.38;;;21.75;;
2458;SDS011;1241;50.920;6.936;2022-12-18T15:50:29;35.65;;;23.33;;
2458;SDS011;1241;50.920;6.936;2022-12-18T15:52:55;37.47;;;22.40;;
2458;SDS011;1241;50.920;6.936;2022-12-18T15:55:22;35.07;;;22.73;;
2458;SDS011;1241;50.920;6.936;2022-12-18T15:58:08;36.85;;;23.83;;
2458;SDS011;1241;50.920;6.936;2022-12-18T16:00:35;40.88;;;23.50;;
2458;SDS011;1241;50.920;6.936;2022-12-18T16:03:04;36.75;;;24.35;;
2458;SDS011;1241;50.920;6.936;2022-12-18T16:05:30;31.23;;;22.70;;
2458;SDS011;1241;50.920;6.936;2022-12-18T16:07:56;39.92;;;23.30;;
2458;SDS011;1241;50.920;6.936;2022-12-18T16:10:24;34.83;;;21.20;;
2458;SDS011;1241;50.920;6.936;2022-12-18T16:12:51;39.63;;;24.00;;
2458;SDS011;1241;50.920;6.936;2022-12-18T16:15:17;35.27;;;24.00;;
2458;SDS011;1241;50.920;6.936;2022-12-18T16:17:43;41.63;;;23.90;;
2458;SDS011;1241;50.920;6.936;2022-12-18T16:20:12;34.67;;;24.38;;
2458;SDS011;1241;50.920;6.936;2022-12-18T16:22:40;41.00;;;25.33;;
2458;SDS011;1241;50.920;6.936;2022-12-18T16:25:19;36.35;;;23.80;;
2458;SDS011;1241;50.920;6.936;2022-12-18T16:27:47;35.60;;;23.60;;
2458;SDS011;1241;50.920;6.936;2022-12-18T16:30:15;29.95;;;22.75;;
2458;SDS011;1241;50.920;6.936;2022-12-18T16:32:42;34.80;;;22.70;;
2458;SDS011;1241;50.920;6.936;2022-12-18T16:35:09;35.22;;;21.95;;
2458;SDS011;1241;50.920;6.936;2022-12-18T16:37:36;40.95;;;23.73;;
2458;SDS011;1241;50.920;6.936;2022-12-18T16:40:02;38.13;;;23.02;;
2458;SDS011;1241;50.920;6.936;2022-12-18T16:42:28;36.00;;;24.52;;
2458;SDS011;1241;50.920;6.936;2022-12-18T16:44:54;39.10;;;25.73;;
2458;SDS011;1241;50.920;6.936;2022-12-18T16:47:23;37.92;;;23.08;;
2458;SDS011;1241;50.920;6.936;2022-12-18T16:49:48;34.53;;;23.10;;
2458;SDS011;1241;50.920;6.936;2022-12-18T16:52:16;40.00;;;26.75;;
2458;SDS011;1241;50.920;6.936;2022-12-18T16:54:42;40.63;;;23.33;;
2458;SDS011;1241;50.920;6.936;2022-12-18T16:57:12;42.87;;;25.57;;
2458;SDS011;1241;50.920;6.936;2022-12-18T16:59:39;32.22;;;23.63;;
2458;SDS011;1241;50.920;6.936;2022-12-18T17:02:06;43.07;;;25.73;;